createdAt,value
2018-06-13T00:00:00.747Z,1002.0
2018-06-13T00:01:02.141Z,1002.0
2018-06-13T00:02:03.528Z,1002.0
2018-06-13T00:03:04.922Z,1002.0
2018-06-13T00:04:06.308Z,1002.0
2018-06-13T00:05:07.704Z,1002.0
2018-06-13T00:06:09.093Z,1002.0
2018-06-13T00:07:10.483Z,1002.0
2018-06-13T00:08:11.876Z,1002.0
2018-06-13T00:09:13.270Z,1002.0
2018-06-13T00:10:14.663Z,1002.0
2018-06-13T00:11:16.060Z,1002.0
2018-06-13T00:12:17.453Z,1002.0
2018-06-13T00:13:18.848Z,1002.0
2018-06-13T00:14:20.238Z,1002.0
2018-06-13T00:15:21.632Z,1002.0
2018-06-13T00:16:23.026Z,1002.0
2018-06-13T00:17:24.420Z,1002.0
2018-06-13T00:18:25.812Z,1002.0
2018-06-13T00:19:27.200Z,1002.0
2018-06-13T00:20:28.598Z,1002.0
2018-06-13T00:21:29.992Z,1002.0
2018-06-13T00:22:31.384Z,1002.0
2018-06-13T00:23:32.839Z,1002.1
2018-06-13T00:24:34.232Z,1002.1
2018-06-13T00:25:35.622Z,1002.1
2018-06-13T00:26:37.015Z,1002.1
2018-06-13T00:27:38.406Z,1002.2
2018-06-13T00:28:39.795Z,1002.2
2018-06-13T00:29:41.193Z,1002.1
2018-06-13T00:30:42.586Z,1002.2
2018-06-13T00:31:43.987Z,1002.2
2018-06-13T00:32:45.383Z,1002.1
2018-06-13T00:33:46.777Z,1002.1
2018-06-13T00:34:48.165Z,1002.2
2018-06-13T00:35:49.557Z,1002.1
2018-06-13T00:36:50.984Z,1002.1
2018-06-13T00:37:52.346Z,1002.1
2018-06-13T00:38:53.852Z,1002.1
2018-06-13T00:39:55.252Z,1002.1
2018-06-13T00:40:56.641Z,1002.2
2018-06-13T00:41:58.062Z,1002.2
2018-06-13T00:42:59.453Z,1002.2
2018-06-13T00:44:00.847Z,1002.2
2018-06-13T00:45:02.242Z,1002.2
2018-06-13T00:46:03.641Z,1002.2
2018-06-13T00:47:05.037Z,1002.2
2018-06-13T00:48:06.429Z,1002.3
2018-06-13T00:49:07.819Z,1002.2
2018-06-13T00:50:09.215Z,1002.2
2018-06-13T00:51:10.609Z,1002.2
2018-06-13T00:52:12.005Z,1002.2
2018-06-13T00:53:13.427Z,1002.2
2018-06-13T00:54:14.817Z,1002.2
2018-06-13T00:55:16.205Z,1002.2
2018-06-13T00:56:17.601Z,1002.2
2018-06-13T00:57:18.990Z,1002.3
2018-06-13T00:58:20.386Z,1002.2
2018-06-13T00:59:21.779Z,1002.3
2018-06-13T01:00:23.184Z,1002.4
2018-06-13T01:01:24.571Z,1002.4
2018-06-13T01:02:25.964Z,1002.4
2018-06-13T01:03:27.360Z,1002.4
2018-06-13T01:04:28.751Z,1002.4
2018-06-13T01:05:30.144Z,1002.4
2018-06-13T01:06:31.554Z,1002.4
2018-06-13T01:07:32.945Z,1002.4
2018-06-13T01:08:34.337Z,1002.3
2018-06-13T01:09:35.731Z,1002.4
2018-06-13T01:10:37.123Z,1002.3
2018-06-13T01:11:38.512Z,1002.4
2018-06-13T01:12:39.905Z,1002.4
2018-06-13T01:13:41.298Z,1002.4
2018-06-13T01:14:42.691Z,1002.4
2018-06-13T01:15:44.080Z,1002.4
2018-06-13T01:16:45.473Z,1002.4
2018-06-13T01:17:46.873Z,1002.4
2018-06-13T01:18:48.256Z,1002.4
2018-06-13T01:19:49.649Z,1002.4
2018-06-13T01:20:51.039Z,1002.5
2018-06-13T01:21:52.436Z,1002.4
2018-06-13T01:22:53.830Z,1002.4
2018-06-13T01:23:55.217Z,1002.4
2018-06-13T01:24:56.654Z,1002.4
2018-06-13T01:25:58.049Z,1002.4
2018-06-13T01:26:59.441Z,1002.5
2018-06-13T01:28:00.833Z,1002.5
2018-06-13T01:29:02.223Z,1002.5
2018-06-13T01:30:03.626Z,1002.5
2018-06-13T01:31:05.024Z,1002.5
2018-06-13T01:32:06.404Z,1002.5
2018-06-13T01:33:07.799Z,1002.5
2018-06-13T01:34:09.193Z,1002.4
2018-06-13T01:35:10.586Z,1002.4
2018-06-13T01:36:11.980Z,1002.4
2018-06-13T01:37:13.400Z,1002.4
2018-06-13T01:38:14.788Z,1002.4
2018-06-13T01:39:16.179Z,1002.5
2018-06-13T01:40:17.573Z,1002.5
2018-06-13T01:41:18.966Z,1002.5
2018-06-13T01:42:20.355Z,1002.5
2018-06-13T01:43:21.752Z,1002.5
2018-06-13T01:44:23.140Z,1002.5
2018-06-13T01:45:24.532Z,1002.5
2018-06-13T01:46:25.922Z,1002.5
2018-06-13T01:47:27.313Z,1002.5
2018-06-13T01:48:28.714Z,1002.5
2018-06-13T01:49:30.103Z,1002.5
2018-06-13T01:50:31.496Z,1002.5
2018-06-13T01:51:32.882Z,1002.5
2018-06-13T01:52:34.283Z,1002.4
2018-06-13T01:53:35.673Z,1002.4
2018-06-13T01:54:37.066Z,1002.4
2018-06-13T01:55:38.467Z,1002.4
2018-06-13T01:56:39.859Z,1002.4
2018-06-13T01:57:41.250Z,1002.4
2018-06-13T01:58:42.639Z,1002.4
2018-06-13T01:59:44.029Z,1002.4
2018-06-13T02:00:45.419Z,1002.4
2018-06-13T02:01:46.814Z,1002.4
2018-06-13T02:02:48.207Z,1002.4
2018-06-13T02:03:49.604Z,1002.4
2018-06-13T02:04:50.994Z,1002.4
2018-06-13T02:05:52.385Z,1002.4
2018-06-13T02:06:53.799Z,1002.4
2018-06-13T02:07:55.190Z,1002.4
2018-06-13T02:08:56.582Z,1002.4
2018-06-13T02:09:57.973Z,1002.4
2018-06-13T02:10:59.407Z,1002.5
2018-06-13T02:12:00.787Z,1002.4
2018-06-13T02:13:02.177Z,1002.5
2018-06-13T02:14:03.603Z,1002.4
2018-06-13T02:15:04.998Z,1002.4
2018-06-13T02:16:06.388Z,1002.4
2018-06-13T02:17:07.780Z,1002.4
2018-06-13T02:18:09.176Z,1002.4
2018-06-13T02:19:10.569Z,1002.5
2018-06-13T02:20:11.962Z,1002.5
2018-06-13T02:21:13.351Z,1002.5
2018-06-13T02:22:14.744Z,1002.5
2018-06-13T02:23:16.138Z,1002.5
2018-06-13T02:24:17.536Z,1002.5
2018-06-13T02:25:18.926Z,1002.5
2018-06-13T02:26:20.319Z,1002.4
2018-06-13T02:27:21.718Z,1002.4
2018-06-13T02:28:23.101Z,1002.4
2018-06-13T02:29:24.497Z,1002.4
2018-06-13T02:30:25.888Z,1002.5
2018-06-13T02:31:27.275Z,1002.4
2018-06-13T02:32:28.677Z,1002.4
2018-06-13T02:33:30.060Z,1002.5
2018-06-13T02:34:31.452Z,1002.4
2018-06-13T02:35:32.847Z,1002.5
2018-06-13T02:36:34.236Z,1002.4
2018-06-13T02:37:35.626Z,1002.4
2018-06-13T02:38:37.022Z,1002.5
2018-06-13T02:39:38.422Z,1002.5
2018-06-13T02:40:39.809Z,1002.5
2018-06-13T02:41:41.201Z,1002.5
2018-06-13T02:42:42.628Z,1002.5
2018-06-13T02:43:44.019Z,1002.4
2018-06-13T02:44:45.411Z,1002.5
2018-06-13T02:45:46.807Z,1002.5
2018-06-13T02:46:48.200Z,1002.4
2018-06-13T02:47:49.604Z,1002.4
2018-06-13T02:48:50.993Z,1002.5
2018-06-13T02:49:52.388Z,1002.5
2018-06-13T02:50:53.779Z,1002.5
2018-06-13T02:51:55.171Z,1002.5
2018-06-13T02:52:56.568Z,1002.5
2018-06-13T02:53:57.960Z,1002.5
2018-06-13T02:54:59.386Z,1002.4
2018-06-13T02:56:00.776Z,1002.5
2018-06-13T02:57:02.204Z,1002.4
2018-06-13T02:58:03.623Z,1002.4
2018-06-13T02:59:05.013Z,1002.4
2018-06-13T03:00:06.409Z,1002.4
2018-06-13T03:01:07.800Z,1002.3
2018-06-13T03:02:09.193Z,1002.4
2018-06-13T03:03:10.585Z,1002.3
2018-06-13T03:04:11.971Z,1002.3
2018-06-13T03:05:13.363Z,1002.3
2018-06-13T03:06:14.753Z,1002.4
2018-06-13T03:07:16.148Z,1002.4
2018-06-13T03:08:17.544Z,1002.3
2018-06-13T03:09:18.933Z,1002.4
2018-06-13T03:10:20.323Z,1002.4
2018-06-13T03:11:21.715Z,1002.5
2018-06-13T03:12:23.103Z,1002.5
2018-06-13T03:13:24.494Z,1002.5
2018-06-13T03:14:25.885Z,1002.5
2018-06-13T03:15:27.292Z,1002.5
2018-06-13T03:16:28.681Z,1002.5
2018-06-13T03:17:30.072Z,1002.5
2018-06-13T03:18:31.459Z,1002.5
2018-06-13T03:19:32.860Z,1002.5
2018-06-13T03:20:34.263Z,1002.5
2018-06-13T03:21:35.655Z,1002.5
2018-06-13T03:22:37.047Z,1002.5
2018-06-13T03:23:38.441Z,1002.5
2018-06-13T03:24:39.834Z,1002.5
2018-06-13T03:25:41.222Z,1002.5
2018-06-13T03:26:42.617Z,1002.5
2018-06-13T03:27:44.008Z,1002.5
2018-06-13T03:28:45.404Z,1002.5
2018-06-13T03:29:46.797Z,1002.5
2018-06-13T03:30:48.202Z,1002.5
2018-06-13T03:31:49.587Z,1002.5
2018-06-13T03:32:50.980Z,1002.5
2018-06-13T03:33:52.376Z,1002.6
2018-06-13T03:34:53.764Z,1002.5
2018-06-13T03:35:55.159Z,1002.5
2018-06-13T03:36:56.552Z,1002.6
2018-06-13T03:37:57.949Z,1002.6
2018-06-13T03:38:59.340Z,1002.5
2018-06-13T03:40:00.735Z,1002.6
2018-06-13T03:41:02.187Z,1002.6
2018-06-13T03:42:03.527Z,1002.6
2018-06-13T03:43:05.047Z,1002.6
2018-06-13T03:44:06.463Z,1002.6
2018-06-13T03:45:07.860Z,1002.6
2018-06-13T03:46:09.256Z,1002.5
2018-06-13T03:47:10.651Z,1002.5
2018-06-13T03:48:12.054Z,1002.5
2018-06-13T03:49:13.448Z,1002.6
2018-06-13T03:50:14.842Z,1002.5
2018-06-13T03:51:16.239Z,1002.5
2018-06-13T03:52:17.635Z,1002.5
2018-06-13T03:53:19.032Z,1002.5
2018-06-13T03:54:20.428Z,1002.5
2018-06-13T03:55:21.821Z,1002.5
2018-06-13T03:56:23.214Z,1002.5
2018-06-13T03:57:24.608Z,1002.6
2018-06-13T03:58:26.008Z,1002.5
2018-06-13T03:59:27.403Z,1002.6
2018-06-13T04:00:28.798Z,1002.5
2018-06-13T04:01:30.192Z,1002.6
2018-06-13T04:02:31.590Z,1002.6
2018-06-13T04:03:32.984Z,1002.5
2018-06-13T04:04:34.378Z,1002.6
2018-06-13T04:05:35.772Z,1002.6
2018-06-13T04:06:37.170Z,1002.6
2018-06-13T04:07:38.565Z,1002.7
2018-06-13T04:08:39.957Z,1002.6
2018-06-13T04:09:41.353Z,1002.6
2018-06-13T04:10:42.751Z,1002.6
2018-06-13T04:11:44.146Z,1002.6
2018-06-13T04:12:45.544Z,1002.6
2018-06-13T04:13:47.011Z,1002.6
2018-06-13T04:14:48.375Z,1002.7
2018-06-13T04:15:49.768Z,1002.6
2018-06-13T04:16:51.169Z,1002.6
2018-06-13T04:17:52.574Z,1002.6
2018-06-13T04:18:53.971Z,1002.6
2018-06-13T04:19:55.368Z,1002.6
2018-06-13T04:20:56.759Z,1002.6
2018-06-13T04:21:58.151Z,1002.6
2018-06-13T04:22:59.566Z,1002.6
2018-06-13T04:24:00.962Z,1002.6
2018-06-13T04:25:02.359Z,1002.6
2018-06-13T04:26:03.754Z,1002.6
2018-06-13T04:27:05.151Z,1002.6
2018-06-13T04:28:06.546Z,1002.6
2018-06-13T04:29:07.982Z,1002.6
2018-06-13T04:30:09.368Z,1002.6
2018-06-13T04:31:10.762Z,1002.6
2018-06-13T04:32:12.156Z,1002.6
2018-06-13T04:33:13.552Z,1002.6
2018-06-13T04:34:14.946Z,1002.6
2018-06-13T04:35:16.372Z,1002.6
2018-06-13T04:36:17.764Z,1002.6
2018-06-13T04:37:19.157Z,1002.6
2018-06-13T04:38:20.550Z,1002.6
2018-06-13T04:39:21.945Z,1002.6
2018-06-13T04:40:23.339Z,1002.5
2018-06-13T04:41:24.738Z,1002.5
2018-06-13T04:42:26.136Z,1002.6
2018-06-13T04:43:27.531Z,1002.6
2018-06-13T04:44:28.930Z,1002.6
2018-06-13T04:45:30.323Z,1002.6
2018-06-13T04:46:31.718Z,1002.6
2018-06-13T04:47:33.113Z,1002.6
2018-06-13T04:48:34.510Z,1002.6
2018-06-13T04:49:35.907Z,1002.5
2018-06-13T04:50:37.311Z,1002.6
2018-06-13T04:51:38.706Z,1002.6
2018-06-13T04:52:40.100Z,1002.6
2018-06-13T04:53:41.501Z,1002.6
2018-06-13T04:54:42.903Z,1002.6
2018-06-13T04:55:44.302Z,1002.6
2018-06-13T04:56:45.697Z,1002.6
2018-06-13T04:57:47.096Z,1002.6
2018-06-13T04:58:48.562Z,1002.6
2018-06-13T04:59:49.961Z,1002.6
2018-06-13T05:00:51.359Z,1002.6
2018-06-13T05:01:52.760Z,1002.6
2018-06-13T05:02:54.157Z,1002.6
2018-06-13T05:03:55.558Z,1002.6
2018-06-13T05:04:56.952Z,1002.6
2018-06-13T05:05:58.345Z,1002.6
2018-06-13T05:06:59.742Z,1002.6
2018-06-13T05:08:01.140Z,1002.6
2018-06-13T05:09:02.538Z,1002.6
2018-06-13T05:10:03.940Z,1002.6
2018-06-13T05:11:05.336Z,1002.7
2018-06-13T05:12:06.731Z,1002.6
2018-06-13T05:13:08.123Z,1002.7
2018-06-13T05:14:09.521Z,1002.7
2018-06-13T05:15:10.965Z,1002.7
2018-06-13T05:16:12.365Z,1002.7
2018-06-13T05:17:13.785Z,1002.6
2018-06-13T05:18:15.175Z,1002.6
2018-06-13T05:19:16.570Z,1002.6
2018-06-13T05:20:17.969Z,1002.7
2018-06-13T05:21:19.386Z,1002.6
2018-06-13T05:22:20.783Z,1002.5
2018-06-13T05:23:22.179Z,1002.6
2018-06-13T05:24:23.576Z,1002.6
2018-06-13T05:25:24.980Z,1002.6
2018-06-13T05:26:26.380Z,1002.7
2018-06-13T05:27:27.770Z,1002.6
2018-06-13T05:28:29.212Z,1002.7
2018-06-13T05:29:30.562Z,1002.7
2018-06-13T05:30:31.964Z,1002.7
2018-06-13T05:31:33.357Z,1002.7
2018-06-13T05:32:34.758Z,1002.8
2018-06-13T05:33:36.150Z,1002.8
2018-06-13T05:34:37.547Z,1002.7
2018-06-13T05:35:38.944Z,1002.7
2018-06-13T05:36:40.341Z,1002.7
2018-06-13T05:37:41.736Z,1002.8
2018-06-13T05:38:43.134Z,1002.7
2018-06-13T05:39:44.534Z,1002.8
2018-06-13T05:40:45.924Z,1002.7
2018-06-13T05:41:47.368Z,1002.7
2018-06-13T05:42:48.711Z,1002.8
2018-06-13T05:43:50.157Z,1002.7
2018-06-13T05:44:51.507Z,1002.8
2018-06-13T05:45:52.899Z,1002.7
2018-06-13T05:46:54.302Z,1002.7
2018-06-13T05:47:55.728Z,1002.7
2018-06-13T05:48:57.118Z,1002.8
2018-06-13T05:49:58.516Z,1002.8
2018-06-13T05:50:59.912Z,1002.8
2018-06-13T05:52:01.312Z,1002.8
2018-06-13T05:53:02.712Z,1002.8
2018-06-13T05:54:04.109Z,1002.9
2018-06-13T05:55:05.501Z,1002.8
2018-06-13T05:56:06.895Z,1002.8
2018-06-13T05:57:08.292Z,1002.8
2018-06-13T05:58:09.686Z,1002.8
2018-06-13T05:59:11.081Z,1002.7
2018-06-13T06:00:12.476Z,1002.9
2018-06-13T06:01:13.992Z,1002.8
2018-06-13T06:02:15.333Z,1002.9
2018-06-13T06:03:16.725Z,1002.9
2018-06-13T06:04:18.121Z,1002.9
2018-06-13T06:05:19.514Z,1002.9
2018-06-13T06:06:20.910Z,1003.0
2018-06-13T06:07:22.309Z,1003.0
2018-06-13T06:08:23.710Z,1003.0
2018-06-13T06:09:25.106Z,1003.0
2018-06-13T06:10:26.552Z,1003.0
2018-06-13T06:11:27.903Z,1003.1
2018-06-13T06:12:29.299Z,1003.0
2018-06-13T06:13:30.692Z,1003.0
2018-06-13T06:14:32.092Z,1003.0
2018-06-13T06:15:33.486Z,1003.0
2018-06-13T06:16:34.880Z,1003.0
2018-06-13T06:17:36.273Z,1003.0
2018-06-13T06:18:37.670Z,1003.0
2018-06-13T06:19:39.068Z,1003.0
2018-06-13T06:20:40.467Z,1003.0
2018-06-13T06:21:41.864Z,1003.1
2018-06-13T06:22:43.264Z,1003.1
2018-06-13T06:23:44.662Z,1003.1
2018-06-13T06:24:46.057Z,1003.1
2018-06-13T06:25:47.457Z,1003.1
2018-06-13T06:26:48.856Z,1003.1
2018-06-13T06:27:50.258Z,1003.0
2018-06-13T06:28:51.655Z,1003.0
2018-06-13T06:29:53.052Z,1003.0
2018-06-13T06:30:54.443Z,1003.0
2018-06-13T06:31:55.841Z,1003.1
2018-06-13T06:32:57.242Z,1003.0
2018-06-13T06:33:58.637Z,1003.0
2018-06-13T06:35:00.049Z,1003.0
2018-06-13T06:36:01.431Z,1003.0
2018-06-13T06:37:02.837Z,1003.0
2018-06-13T06:38:04.227Z,1003.0
2018-06-13T06:39:05.626Z,1003.0
2018-06-13T06:40:07.017Z,1003.0
2018-06-13T06:41:08.418Z,1003.0
2018-06-13T06:42:09.858Z,1003.0
2018-06-13T06:43:11.210Z,1003.0
2018-06-13T06:44:12.604Z,1003.0
2018-06-13T06:45:14.016Z,1003.0
2018-06-13T06:46:15.410Z,1003.0
2018-06-13T06:47:16.873Z,1003.0
2018-06-13T06:48:18.352Z,1003.1
2018-06-13T06:49:19.744Z,1003.1
2018-06-13T06:50:21.146Z,1003.0
2018-06-13T06:51:22.545Z,1003.0
2018-06-13T06:52:23.938Z,1003.0
2018-06-13T06:53:25.336Z,1003.1
2018-06-13T06:54:26.732Z,1003.0
2018-06-13T06:55:28.168Z,1003.0
2018-06-13T06:56:29.525Z,1003.0
2018-06-13T06:57:30.921Z,1003.0
2018-06-13T06:58:32.323Z,1003.0
2018-06-13T06:59:33.714Z,1003.0
2018-06-13T07:00:35.111Z,1003.0
2018-06-13T07:01:36.514Z,1003.0
2018-06-13T07:02:37.972Z,1003.0
2018-06-13T07:03:39.304Z,1003.1
2018-06-13T07:04:40.705Z,1003.1
2018-06-13T07:05:42.106Z,1003.0
2018-06-13T07:06:43.506Z,1003.1
2018-06-13T07:07:44.897Z,1003.1
2018-06-13T07:08:46.295Z,1003.1
2018-06-13T07:09:47.694Z,1003.1
2018-06-13T07:10:49.091Z,1003.1
2018-06-13T07:11:50.490Z,1003.2
2018-06-13T07:12:51.966Z,1003.2
2018-06-13T07:13:53.366Z,1003.2
2018-06-13T07:14:54.768Z,1003.1
2018-06-13T07:15:56.172Z,1003.2
2018-06-13T07:16:57.573Z,1003.2
2018-06-13T07:17:58.976Z,1003.2
2018-06-13T07:19:00.397Z,1003.2
2018-06-13T07:20:01.785Z,1003.2
2018-06-13T07:21:03.182Z,1003.2
2018-06-13T07:22:04.584Z,1003.2
2018-06-13T07:23:05.980Z,1003.2
2018-06-13T07:24:07.386Z,1003.3
2018-06-13T07:25:08.797Z,1003.2
2018-06-13T07:26:10.215Z,1003.2
2018-06-13T07:27:11.618Z,1003.3
2018-06-13T07:28:13.013Z,1003.2
2018-06-13T07:29:14.415Z,1003.3
2018-06-13T07:30:15.811Z,1003.2
2018-06-13T07:31:17.206Z,1003.2
2018-06-13T07:32:18.612Z,1003.3
2018-06-13T07:33:20.087Z,1003.3
2018-06-13T07:34:21.500Z,1003.3
2018-06-13T07:35:22.903Z,1003.3
2018-06-13T07:36:24.303Z,1003.3
2018-06-13T07:37:25.701Z,1003.3
2018-06-13T07:38:27.100Z,1003.4
2018-06-13T07:39:28.502Z,1003.3
2018-06-13T07:40:29.900Z,1003.4
2018-06-13T07:41:31.322Z,1003.3
2018-06-13T07:42:32.695Z,1003.3
2018-06-13T07:43:34.106Z,1003.3
2018-06-13T07:44:35.492Z,1003.4
2018-06-13T07:45:36.893Z,1003.4
2018-06-13T07:46:38.291Z,1003.4
2018-06-13T07:47:39.685Z,1003.4
2018-06-13T07:48:41.086Z,1003.4
2018-06-13T07:49:42.504Z,1003.4
2018-06-13T07:50:43.882Z,1003.3
2018-06-13T07:51:45.281Z,1003.4
2018-06-13T07:52:46.680Z,1003.3
2018-06-13T07:53:48.076Z,1003.4
2018-06-13T07:54:49.474Z,1003.4
2018-06-13T07:55:50.872Z,1003.4
2018-06-13T07:56:52.269Z,1003.4
2018-06-13T07:57:53.677Z,1003.4
2018-06-13T07:58:55.074Z,1003.4
2018-06-13T07:59:56.472Z,1003.4
2018-06-13T08:00:57.873Z,1003.4
2018-06-13T08:01:59.270Z,1003.4
2018-06-13T08:03:00.676Z,1003.4
2018-06-13T08:04:02.078Z,1003.3
2018-06-13T08:05:03.474Z,1003.4
2018-06-13T08:06:04.896Z,1003.3
2018-06-13T08:07:06.296Z,1003.3
2018-06-13T08:08:07.693Z,1003.4
2018-06-13T08:09:09.127Z,1003.3
2018-06-13T08:10:10.527Z,1003.3
2018-06-13T08:11:11.930Z,1003.3
2018-06-13T08:12:13.322Z,1003.3
2018-06-13T08:13:14.718Z,1003.4
2018-06-13T08:14:16.113Z,1003.4
2018-06-13T08:15:17.521Z,1003.4
2018-06-13T08:16:18.920Z,1003.4
2018-06-13T08:17:20.320Z,1003.4
2018-06-13T08:18:21.749Z,1003.5
2018-06-13T08:19:23.203Z,1003.4
2018-06-13T08:20:24.595Z,1003.5
2018-06-13T08:21:25.990Z,1003.5
2018-06-13T08:22:27.394Z,1003.5
2018-06-13T08:23:28.798Z,1003.5
2018-06-13T08:24:30.202Z,1003.5
2018-06-13T08:25:31.602Z,1003.6
2018-06-13T08:26:32.999Z,1003.6
2018-06-13T08:27:34.397Z,1003.6
2018-06-13T08:28:35.799Z,1003.6
2018-06-13T08:29:37.207Z,1003.6
2018-06-13T08:30:38.610Z,1003.6
2018-06-13T08:31:40.041Z,1003.7
2018-06-13T08:32:41.433Z,1003.7
2018-06-13T08:33:42.883Z,1003.6
2018-06-13T08:34:44.241Z,1003.7
2018-06-13T08:35:45.636Z,1003.6
2018-06-13T08:36:47.057Z,1003.6
2018-06-13T08:37:48.456Z,1003.7
2018-06-13T08:38:49.859Z,1003.7
2018-06-13T08:39:51.301Z,1003.6
2018-06-13T08:40:52.660Z,1003.6
2018-06-13T08:41:54.060Z,1003.6
2018-06-13T08:42:55.456Z,1003.6
2018-06-13T08:43:56.856Z,1003.6
2018-06-13T08:44:58.255Z,1003.6
2018-06-13T08:45:59.654Z,1003.6
2018-06-13T08:47:01.052Z,1003.7
2018-06-13T08:48:02.450Z,1003.6
2018-06-13T08:49:03.845Z,1003.6
2018-06-13T08:50:05.251Z,1003.6
2018-06-13T08:51:06.645Z,1003.6
2018-06-13T08:52:08.057Z,1003.6
2018-06-13T08:53:09.456Z,1003.6
2018-06-13T08:54:10.873Z,1003.6
2018-06-13T08:55:12.267Z,1003.7
2018-06-13T08:56:13.665Z,1003.6
2018-06-13T08:57:15.065Z,1003.7
2018-06-13T08:58:16.473Z,1003.6
2018-06-13T08:59:17.910Z,1003.6
2018-06-13T09:00:19.322Z,1003.7
2018-06-13T09:01:20.710Z,1003.7
2018-06-13T09:02:22.846Z,1003.6
2018-06-13T09:03:24.246Z,1003.6
2018-06-13T09:04:25.676Z,1003.6
2018-06-13T09:05:27.077Z,1003.6
2018-06-13T09:06:28.473Z,1003.7
2018-06-13T09:07:29.893Z,1003.6
2018-06-13T09:08:31.294Z,1003.7
2018-06-13T09:09:32.698Z,1003.7
2018-06-13T09:10:34.097Z,1003.7
2018-06-13T09:11:35.499Z,1003.7
2018-06-13T09:12:36.896Z,1003.7
2018-06-13T09:13:38.305Z,1003.7
2018-06-13T09:14:39.706Z,1003.7
2018-06-13T09:15:41.102Z,1003.7
2018-06-13T09:16:42.500Z,1003.8
2018-06-13T09:17:43.899Z,1003.7
2018-06-13T09:18:45.291Z,1003.8
2018-06-13T09:19:46.689Z,1003.8
2018-06-13T09:20:48.085Z,1003.8
2018-06-13T09:21:49.487Z,1003.8
2018-06-13T09:22:50.882Z,1003.8
2018-06-13T09:23:52.275Z,1003.8
2018-06-13T09:24:53.674Z,1003.8
2018-06-13T09:25:55.070Z,1003.8
2018-06-13T09:26:56.473Z,1003.8
2018-06-13T09:27:57.871Z,1003.8
2018-06-13T09:28:59.268Z,1003.8
2018-06-13T09:30:00.665Z,1003.8
2018-06-13T09:31:02.061Z,1003.8
2018-06-13T09:32:03.458Z,1003.8
2018-06-13T09:33:04.855Z,1003.8
2018-06-13T09:34:06.254Z,1003.8
2018-06-13T09:35:07.655Z,1003.8
2018-06-13T09:36:09.068Z,1003.8
2018-06-13T09:37:10.465Z,1003.8
2018-06-13T09:38:11.861Z,1003.8
2018-06-13T09:39:13.255Z,1003.8
2018-06-13T09:40:14.655Z,1003.8
2018-06-13T09:41:16.055Z,1003.8
2018-06-13T09:42:17.454Z,1003.9
2018-06-13T09:43:18.856Z,1003.8
2018-06-13T09:44:20.263Z,1003.9
2018-06-13T09:45:21.655Z,1003.9
2018-06-13T09:46:23.054Z,1003.9
2018-06-13T09:47:24.452Z,1003.8
2018-06-13T09:48:25.857Z,1003.8
2018-06-13T09:49:27.260Z,1003.8
2018-06-13T09:50:28.745Z,1003.8
2018-06-13T09:51:30.141Z,1003.8
2018-06-13T09:52:31.537Z,1003.8
2018-06-13T09:53:32.940Z,1003.8
2018-06-13T09:54:34.335Z,1003.8
2018-06-13T09:55:35.736Z,1003.8
2018-06-13T09:56:37.135Z,1003.7
2018-06-13T09:57:38.536Z,1003.8
2018-06-13T09:58:39.931Z,1003.8
2018-06-13T09:59:41.333Z,1003.9
2018-06-13T10:00:42.729Z,1003.8
2018-06-13T10:01:44.207Z,1003.8
2018-06-13T10:02:45.531Z,1003.9
2018-06-13T10:03:46.929Z,1003.9
2018-06-13T10:04:48.328Z,1003.9
2018-06-13T10:05:49.728Z,1003.8
2018-06-13T10:06:51.125Z,1003.9
2018-06-13T10:07:52.528Z,1003.9
2018-06-13T10:08:53.923Z,1003.9
2018-06-13T10:09:55.324Z,1003.9
2018-06-13T10:10:57.433Z,1003.8
2018-06-13T10:11:58.833Z,1003.9
2018-06-13T10:13:00.233Z,1003.9
2018-06-13T10:14:01.628Z,1003.9
2018-06-13T10:15:03.027Z,1003.9
2018-06-13T10:16:04.424Z,1003.9
2018-06-13T10:17:05.824Z,1003.9
2018-06-13T10:18:07.224Z,1003.9
2018-06-13T10:19:08.627Z,1003.9
2018-06-13T10:20:10.026Z,1003.9
2018-06-13T10:21:11.424Z,1003.9
2018-06-13T10:22:12.841Z,1003.9
2018-06-13T10:23:14.225Z,1003.9
2018-06-13T10:24:15.625Z,1003.9
2018-06-13T10:25:17.022Z,1003.9
2018-06-13T10:26:18.420Z,1003.9
2018-06-13T10:27:19.818Z,1003.9
2018-06-13T10:28:21.217Z,1003.9
2018-06-13T10:29:22.623Z,1003.9
2018-06-13T10:30:24.025Z,1003.9
2018-06-13T10:31:25.425Z,1003.9
2018-06-13T10:32:26.821Z,1003.9
2018-06-13T10:33:28.218Z,1003.9
2018-06-13T10:34:29.615Z,1003.9
2018-06-13T10:35:31.046Z,1003.9
2018-06-13T10:36:32.443Z,1003.9
2018-06-13T10:37:33.843Z,1003.8
2018-06-13T10:38:35.291Z,1003.9
2018-06-13T10:39:36.695Z,1003.9
2018-06-13T10:40:38.097Z,1003.9
2018-06-13T10:41:39.492Z,1003.9
2018-06-13T10:42:40.892Z,1003.9
2018-06-13T10:43:42.291Z,1003.8
2018-06-13T10:44:43.700Z,1003.8
2018-06-13T10:45:45.100Z,1003.9
2018-06-13T10:46:46.501Z,1003.9
2018-06-13T10:47:47.897Z,1003.9
2018-06-13T10:48:49.298Z,1003.9
2018-06-13T10:49:50.697Z,1003.9
2018-06-13T10:50:52.141Z,1003.9
2018-06-13T10:51:53.737Z,1004.0
2018-06-13T10:52:55.202Z,1004.0
2018-06-13T10:53:56.781Z,1004.0
2018-06-13T10:54:58.182Z,1004.0
2018-06-13T10:55:59.584Z,1004.0
2018-06-13T10:57:00.982Z,1004.1
2018-06-13T10:58:02.377Z,1004.1
2018-06-13T10:59:03.778Z,1004.1
2018-06-13T11:00:05.174Z,1004.1
2018-06-13T11:01:06.577Z,1004.1
2018-06-13T11:02:07.983Z,1004.1
2018-06-13T11:03:09.375Z,1004.1
2018-06-13T11:04:10.772Z,1004.1
2018-06-13T11:05:12.172Z,1004.1
2018-06-13T11:06:13.618Z,1004.1
2018-06-13T11:07:15.016Z,1004.1
2018-06-13T11:08:16.421Z,1004.1
2018-06-13T11:09:17.816Z,1004.1
2018-06-13T11:10:19.215Z,1004.1
2018-06-13T11:11:20.618Z,1004.1
2018-06-13T11:12:22.016Z,1004.1
2018-06-13T11:13:23.421Z,1004.1
2018-06-13T11:14:24.815Z,1004.0
2018-06-13T11:15:26.217Z,1004.0
2018-06-13T11:16:27.615Z,1004.0
2018-06-13T11:17:29.013Z,1004.0
2018-06-13T11:18:30.437Z,1004.0
2018-06-13T11:19:31.836Z,1004.1
2018-06-13T11:20:33.355Z,1004.0
2018-06-13T11:21:34.801Z,1004.0
2018-06-13T11:22:36.207Z,1004.0
2018-06-13T11:23:37.608Z,1004.0
2018-06-13T11:24:39.018Z,1004.0
2018-06-13T11:25:40.414Z,1004.0
2018-06-13T11:26:41.815Z,1004.0
2018-06-13T11:27:43.212Z,1004.0
2018-06-13T11:28:44.612Z,1004.0
2018-06-13T11:29:46.010Z,1004.0
2018-06-13T11:30:47.410Z,1004.0
2018-06-13T11:31:48.808Z,1004.1
2018-06-13T11:32:50.204Z,1004.0
2018-06-13T11:33:51.607Z,1004.0
2018-06-13T11:34:53.005Z,1004.1
2018-06-13T11:35:54.403Z,1004.0
2018-06-13T11:36:55.802Z,1004.0
2018-06-13T11:37:57.201Z,1004.0
2018-06-13T11:38:58.621Z,1004.0
2018-06-13T11:40:00.025Z,1004.1
2018-06-13T11:41:01.418Z,1004.1
2018-06-13T11:42:02.817Z,1004.1
2018-06-13T11:43:04.232Z,1004.1
2018-06-13T11:44:05.631Z,1004.0
2018-06-13T11:45:07.031Z,1004.0
2018-06-13T11:46:08.429Z,1004.1
2018-06-13T11:47:09.825Z,1004.1
2018-06-13T11:48:11.236Z,1004.1
2018-06-13T11:49:12.626Z,1004.1
2018-06-13T11:50:14.028Z,1004.0
2018-06-13T11:51:15.425Z,1004.1
2018-06-13T11:52:16.825Z,1004.1
2018-06-13T11:53:18.225Z,1004.0
2018-06-13T11:54:19.623Z,1004.1
2018-06-13T11:55:21.020Z,1004.1
2018-06-13T11:56:22.420Z,1004.0
2018-06-13T11:57:23.839Z,1004.0
2018-06-13T11:58:25.257Z,1004.0
2018-06-13T11:59:26.657Z,1004.0
2018-06-13T12:00:28.112Z,1004.0
2018-06-13T12:01:29.490Z,1004.0
2018-06-13T12:02:30.887Z,1004.0
2018-06-13T12:03:32.289Z,1004.0
2018-06-13T12:04:33.700Z,1003.9
2018-06-13T12:05:35.111Z,1004.0
2018-06-13T12:06:36.516Z,1004.0
2018-06-13T12:07:37.927Z,1003.9
2018-06-13T12:08:39.345Z,1003.9
2018-06-13T12:09:40.729Z,1003.9
2018-06-13T12:10:42.128Z,1003.9
2018-06-13T12:11:43.527Z,1003.9
2018-06-13T12:12:44.923Z,1003.9
2018-06-13T12:13:46.324Z,1003.9
2018-06-13T12:14:47.721Z,1003.9
2018-06-13T12:15:49.124Z,1003.9
2018-06-13T12:16:50.534Z,1003.9
2018-06-13T12:17:51.919Z,1003.9
2018-06-13T12:18:53.320Z,1003.9
2018-06-13T12:19:54.719Z,1003.9
2018-06-13T12:20:56.126Z,1003.8
2018-06-13T12:21:57.523Z,1003.9
2018-06-13T12:22:58.930Z,1003.9
2018-06-13T12:24:00.327Z,1003.9
2018-06-13T12:25:01.724Z,1003.9
2018-06-13T12:26:03.125Z,1003.9
2018-06-13T12:27:04.529Z,1004.0
2018-06-13T12:28:05.931Z,1004.0
2018-06-13T12:29:07.332Z,1004.0
2018-06-13T12:30:08.731Z,1004.0
2018-06-13T12:31:10.127Z,1004.0
2018-06-13T12:32:11.529Z,1004.0
2018-06-13T12:33:12.930Z,1004.0
2018-06-13T12:34:14.375Z,1004.0
2018-06-13T12:35:15.732Z,1004.0
2018-06-13T12:36:17.129Z,1004.0
2018-06-13T12:37:18.527Z,1004.1
2018-06-13T12:38:19.926Z,1004.0
2018-06-13T12:39:21.333Z,1004.0
2018-06-13T12:40:22.721Z,1004.1
2018-06-13T12:41:24.120Z,1004.0
2018-06-13T12:42:25.531Z,1004.0
2018-06-13T12:43:26.926Z,1004.0
2018-06-13T12:44:28.320Z,1004.0
2018-06-13T12:45:29.735Z,1004.0